createdAt,value
2022-08-11T00:01:52.101Z,19.82
2022-08-11T00:04:21.481Z,19.74
2022-08-11T00:06:49.068Z,19.49
2022-08-11T00:09:18.385Z,19.23
2022-08-11T00:11:58.804Z,19.39
2022-08-11T00:14:35.323Z,18.98
2022-08-11T00:17:15.047Z,19.10
2022-08-11T00:20:11.664Z,19.14
2022-08-11T00:22:34.687Z,19.34
2022-08-11T00:25:15.893Z,19.03
2022-08-11T00:27:43.277Z,19.14
2022-08-11T00:30:11.618Z,19.32
2022-08-11T00:32:39.649Z,19.29
2022-08-11T00:35:52.054Z,19.04
2022-08-11T00:37:57.682Z,19.17
2022-08-11T00:40:43.163Z,19.18
2022-08-11T00:43:20.380Z,19.19
2022-08-11T00:46:11.562Z,19.20
2022-08-11T00:49:05.979Z,19.12
2022-08-11T00:52:03.981Z,18.97
2022-08-11T00:54:36.413Z,18.91
2022-08-11T00:57:38.398Z,18.81
2022-08-11T01:00:17.096Z,18.85
2022-08-11T01:03:18.279Z,18.97
2022-08-11T01:05:56.946Z,18.74
2022-08-11T01:08:54.346Z,18.83
2022-08-11T01:11:57.780Z,18.93
2022-08-11T01:14:34.497Z,18.97
2022-08-11T01:17:20.787Z,19.00
2022-08-11T01:20:45.325Z,18.82
2022-08-11T01:23:12.422Z,18.69
2022-08-11T01:25:57.245Z,18.79
2022-08-11T01:28:55.390Z,18.53
2022-08-11T01:31:50.457Z,18.59
2022-08-11T01:34:44.065Z,18.74
2022-08-11T01:37:29.301Z,18.86
2022-08-11T01:40:15.951Z,18.85
2022-08-11T01:43:13.629Z,18.88
2022-08-11T01:45:48.448Z,18.83
2022-08-11T01:48:23.198Z,18.83
2022-08-11T01:51:03.731Z,18.88
2022-08-11T01:53:42.473Z,18.92
2022-08-11T01:56:33.764Z,18.90
2022-08-11T01:59:10.596Z,18.85
2022-08-11T02:01:58.310Z,18.87
2022-08-11T02:04:39.385Z,18.95
2022-08-11T02:07:27.667Z,18.88
2022-08-11T02:10:40.894Z,19.00
2022-08-11T02:13:30.295Z,18.98
2022-08-11T02:16:18.359Z,19.01
2022-08-11T02:19:10.981Z,19.03
2022-08-11T02:22:19.590Z,19.01
2022-08-11T02:25:00.657Z,18.96
2022-08-11T02:27:37.562Z,19.00
2022-08-11T02:30:15.677Z,18.73
2022-08-11T02:33:17.060Z,18.80
2022-08-11T02:36:08.380Z,18.72
2022-08-11T02:38:45.371Z,18.64
2022-08-11T02:41:58.563Z,18.69
2022-08-11T02:44:34.984Z,18.62
2022-08-11T02:47:15.462Z,18.48
2022-08-11T02:50:00.018Z,18.40
2022-08-11T02:52:59.627Z,18.23
2022-08-11T02:55:48.789Z,18.30
2022-08-11T02:58:31.745Z,18.14
2022-08-11T03:01:07.529Z,18.17
2022-08-11T03:03:51.360Z,18.15
2022-08-11T03:06:30.702Z,18.07
2022-08-11T03:09:28.189Z,17.91
2022-08-11T03:12:19.313Z,17.95
2022-08-11T03:15:26.060Z,18.01
2022-08-11T03:18:12.415Z,17.86
2022-08-11T03:20:58.614Z,17.85
2022-08-11T03:23:37.671Z,17.78
2022-08-11T03:26:15.693Z,17.71
2022-08-11T03:28:50.066Z,17.85
2022-08-11T03:32:11.762Z,17.69
2022-08-11T03:34:39.893Z,17.86
2022-08-11T03:37:38.543Z,17.72
2022-08-11T03:40:12.101Z,17.66
2022-08-11T03:42:58.778Z,17.82
2022-08-11T03:45:41.129Z,17.59
2022-08-11T03:48:20.262Z,17.42
2022-08-11T03:51:16.201Z,17.58
2022-08-11T03:53:48.672Z,17.54
2022-08-11T03:56:45.216Z,17.53
2022-08-11T03:59:39.572Z,17.37
2022-08-11T04:02:47.957Z,17.36
2022-08-11T04:05:33.413Z,17.40
2022-08-11T04:08:19.556Z,17.24
2022-08-11T04:10:54.990Z,17.34
2022-08-11T04:14:22.043Z,17.33
2022-08-11T04:17:09.738Z,17.37
2022-08-11T04:20:11.573Z,17.30
2022-08-11T04:22:37.998Z,17.36
2022-08-11T04:25:22.417Z,17.37
2022-08-11T04:28:29.199Z,17.26
2022-08-11T04:31:05.534Z,17.18
2022-08-11T04:33:49.638Z,17.01
2022-08-11T04:37:06.634Z,17.30
2022-08-11T04:39:54.987Z,17.13
2022-08-11T04:43:03.687Z,17.06
2022-08-11T04:45:54.886Z,17.21
2022-08-11T04:49:26.524Z,17.20
2022-08-11T04:52:44.604Z,17.24
2022-08-11T04:55:47.846Z,17.27
2022-08-11T04:58:38.280Z,17.28
2022-08-11T05:01:23.532Z,17.33
2022-08-11T05:04:54.207Z,17.35
2022-08-11T05:07:39.509Z,17.50
2022-08-11T05:10:08.902Z,17.45
2022-08-11T05:13:21.677Z,17.32
2022-08-11T05:16:20.581Z,17.41
2022-08-11T05:19:10.989Z,17.79
2022-08-11T05:22:00.219Z,17.78
2022-08-11T05:24:50.625Z,17.73
2022-08-11T05:27:38.675Z,17.96
2022-08-11T05:30:25.278Z,18.17
2022-08-11T05:33:22.595Z,18.75
2022-08-11T05:36:02.188Z,19.28
2022-08-11T05:38:50.872Z,20.13
2022-08-11T05:41:38.997Z,20.56
2022-08-11T05:44:24.325Z,21.10
2022-08-11T05:47:09.866Z,21.51
2022-08-11T05:49:58.308Z,21.78
2022-08-11T05:52:49.274Z,21.94
2022-08-11T05:55:53.994Z,21.98
2022-08-11T05:58:39.530Z,22.27
2022-08-11T06:01:11.208Z,22.51
2022-08-11T06:03:56.630Z,22.72
2022-08-11T06:06:25.714Z,22.96
2022-08-11T06:08:55.496Z,23.17
2022-08-11T06:11:43.633Z,23.34
2022-08-11T06:14:14.270Z,23.74
2022-08-11T06:16:42.274Z,23.68
2022-08-11T06:19:09.573Z,23.49
2022-08-11T06:21:36.257Z,23.35
2022-08-11T06:24:12.209Z,24.36
2022-08-11T06:27:09.118Z,24.99
2022-08-11T06:29:47.619Z,25.02
2022-08-11T06:32:15.663Z,24.90
2022-08-11T06:35:04.206Z,25.30
2022-08-11T06:38:01.591Z,24.86
2022-08-11T06:40:40.375Z,25.26
2022-08-11T06:43:18.057Z,25.05
2022-08-11T06:46:03.164Z,25.22
2022-08-11T06:48:32.197Z,24.80
2022-08-11T06:51:14.816Z,25.69
2022-08-11T06:54:03.440Z,25.13
2022-08-11T06:57:12.128Z,25.41
2022-08-11T06:59:58.609Z,25.61
2022-08-11T07:02:31.346Z,25.93
2022-08-11T07:05:04.391Z,26.07
2022-08-11T07:08:34.347Z,26.09
2022-08-11T07:12:07.550Z,26.30
2022-08-11T07:14:53.413Z,26.62
2022-08-11T07:17:26.769Z,26.53
2022-08-11T07:20:16.121Z,26.24
2022-08-11T07:23:07.364Z,26.49
2022-08-11T07:25:57.930Z,26.50
2022-08-11T07:28:44.464Z,26.63
2022-08-11T07:31:21.400Z,26.95
2022-08-11T07:34:08.017Z,26.84
2022-08-11T07:36:40.107Z,26.45
2022-08-11T07:39:11.386Z,26.93
2022-08-11T07:41:39.076Z,27.13
2022-08-11T07:44:09.377Z,27.18
2022-08-11T07:47:02.596Z,27.56
2022-08-11T07:49:50.717Z,27.61
2022-08-11T07:52:53.859Z,27.32
2022-08-11T07:55:49.587Z,27.55
2022-08-11T07:58:30.075Z,27.57
2022-08-11T08:01:21.671Z,27.23
2022-08-11T08:04:08.504Z,27.52
2022-08-11T08:06:55.207Z,27.87
2022-08-11T08:09:40.915Z,27.92
2022-08-11T08:12:27.646Z,27.53
2022-08-11T08:15:14.298Z,27.71
2022-08-11T08:18:09.407Z,27.58
2022-08-11T08:20:49.841Z,27.54
2022-08-11T08:23:17.627Z,27.69
2022-08-11T08:25:45.276Z,27.90
2022-08-11T08:28:17.698Z,27.77
2022-08-11T08:30:48.248Z,27.51
2022-08-11T08:33:20.185Z,27.79
2022-08-11T08:35:56.087Z,28.18
2022-08-11T08:38:23.151Z,28.11
2022-08-11T08:40:53.981Z,28.07
2022-08-11T08:43:22.529Z,28.13
2022-08-11T08:45:49.142Z,27.89
2022-08-11T08:48:17.164Z,28.26
2022-08-11T08:51:08.038Z,28.33
2022-08-11T08:53:39.502Z,28.58
2022-08-11T08:56:20.985Z,28.72
2022-08-11T08:58:51.516Z,28.16
2022-08-11T09:01:21.304Z,28.57
2022-08-11T09:04:06.631Z,28.59
2022-08-11T09:06:39.752Z,28.60
2022-08-11T09:09:12.081Z,28.45
2022-08-11T09:11:55.349Z,28.70
2022-08-11T09:14:52.521Z,29.01
2022-08-11T09:17:22.321Z,28.89
2022-08-11T09:19:56.552Z,28.89
2022-08-11T09:22:41.985Z,29.09
2022-08-11T09:25:27.625Z,29.01
2022-08-11T09:27:56.506Z,29.23
2022-08-11T09:30:27.849Z,29.22
2022-08-11T09:32:58.295Z,29.12
2022-08-11T09:35:30.525Z,29.25
2022-08-11T09:38:16.733Z,29.57
2022-08-11T09:40:52.689Z,29.14
2022-08-11T09:43:41.618Z,28.86
2022-08-11T09:46:08.900Z,29.20
2022-08-11T09:48:41.018Z,29.02
2022-08-11T09:51:08.727Z,29.43
2022-08-11T09:53:41.263Z,29.09
2022-08-11T09:56:30.700Z,29.36
2022-08-11T09:58:58.157Z,29.02
2022-08-11T10:01:28.417Z,29.27
2022-08-11T10:04:09.146Z,29.72
2022-08-11T10:06:56.181Z,29.08
2022-08-11T10:09:25.188Z,29.19
2022-08-11T10:11:57.931Z,29.16
2022-08-11T10:14:45.031Z,29.77
2022-08-11T10:17:13.627Z,29.32
2022-08-11T10:19:45.261Z,29.63
2022-08-11T10:22:49.659Z,29.37
2022-08-11T10:25:35.454Z,29.18
2022-08-11T10:28:29.009Z,29.54
2022-08-11T10:31:12.603Z,29.85
2022-08-11T10:33:59.974Z,29.73
2022-08-11T10:36:32.632Z,29.54
2022-08-11T10:39:00.711Z,29.63
2022-08-11T10:42:06.401Z,29.70
2022-08-11T10:44:42.385Z,29.70
2022-08-11T10:47:30.591Z,29.88
2022-08-11T10:50:16.117Z,29.88
2022-08-11T10:53:01.892Z,30.13
2022-08-11T10:55:47.578Z,30.24
2022-08-11T10:58:33.388Z,29.96
2022-08-11T11:01:03.697Z,30.08
2022-08-11T11:03:32.126Z,29.91
2022-08-11T11:06:29.410Z,29.54
2022-08-11T11:09:05.448Z,30.09
2022-08-11T11:11:55.095Z,29.62
2022-08-11T11:14:46.135Z,30.10
2022-08-11T11:17:46.255Z,30.11
2022-08-11T11:20:37.954Z,30.11
2022-08-11T11:23:10.465Z,30.53
2022-08-11T11:26:10.918Z,30.27
2022-08-11T11:28:50.457Z,29.89
2022-08-11T11:31:22.302Z,30.22
2022-08-11T11:34:11.872Z,30.44
2022-08-11T11:36:56.421Z,30.58
2022-08-11T11:39:25.416Z,30.32
2022-08-11T11:41:53.995Z,30.80
2022-08-11T11:44:22.719Z,30.52
2022-08-11T11:46:50.154Z,30.30
2022-08-11T11:49:18.587Z,30.58
2022-08-11T11:51:49.939Z,30.64
2022-08-11T11:54:23.891Z,30.86
2022-08-11T11:56:53.196Z,30.21
2022-08-11T11:59:40.075Z,30.49
2022-08-11T12:02:11.966Z,30.93
2022-08-11T12:04:41.883Z,31.33
2022-08-11T12:07:27.790Z,31.15
2022-08-11T12:09:55.371Z,31.41
2022-08-11T12:12:41.033Z,31.41
2022-08-11T12:15:08.357Z,31.41
2022-08-11T12:17:35.818Z,31.42
2022-08-11T12:20:03.668Z,31.61
2022-08-11T12:22:49.769Z,31.05
2022-08-11T12:25:35.837Z,31.26
2022-08-11T12:28:02.797Z,31.33
2022-08-11T12:30:29.718Z,31.13
2022-08-11T12:32:57.168Z,30.99
2022-08-11T12:35:23.720Z,31.46
2022-08-11T12:38:00.486Z,31.73
2022-08-11T12:41:15.899Z,31.86
2022-08-11T12:43:56.989Z,31.91
2022-08-11T12:46:27.846Z,31.16
2022-08-11T12:49:17.360Z,31.17
2022-08-11T12:52:12.110Z,31.66
2022-08-11T12:54:51.348Z,31.35
2022-08-11T12:57:43.310Z,30.83
2022-08-11T13:00:28.810Z,31.12
2022-08-11T13:03:14.166Z,31.73
2022-08-11T13:05:45.025Z,31.68
2022-08-11T13:08:14.989Z,31.91
2022-08-11T13:11:00.325Z,31.21
2022-08-11T13:13:54.454Z,31.43
2022-08-11T13:16:14.953Z,32.06
2022-08-11T13:18:43.040Z,31.73
2022-08-11T13:21:20.123Z,31.88
2022-08-11T13:24:00.562Z,32.37
2022-08-11T13:26:47.294Z,32.09
2022-08-11T13:29:21.075Z,31.77
2022-08-11T13:31:48.315Z,31.88
2022-08-11T13:34:19.903Z,31.16
2022-08-11T13:36:49.043Z,32.01
2022-08-11T13:39:15.708Z,32.32
2022-08-11T13:41:43.980Z,32.25
2022-08-11T13:44:21.589Z,32.19
2022-08-11T13:46:52.798Z,31.89
2022-08-11T13:49:21.002Z,32.30
2022-08-11T13:51:47.992Z,32.14
2022-08-11T13:54:24.298Z,32.47
2022-08-11T13:56:57.296Z,32.65
2022-08-11T13:59:30.359Z,31.82
2022-08-11T14:02:28.308Z,31.81
2022-08-11T14:05:00.178Z,31.61
2022-08-11T14:07:35.218Z,32.18
2022-08-11T14:10:02.656Z,32.11
2022-08-11T14:12:52.733Z,32.68
2022-08-11T14:15:22.796Z,32.72
2022-08-11T14:17:54.846Z,31.79
2022-08-11T14:20:38.074Z,31.30
2022-08-11T14:23:08.760Z,32.00
2022-08-11T14:26:00.841Z,31.80
2022-08-11T14:28:33.601Z,32.05
2022-08-11T14:31:03.470Z,32.03
2022-08-11T14:33:58.844Z,31.73
2022-08-11T14:36:21.125Z,31.86
2022-08-11T14:38:48.084Z,32.12
2022-08-11T14:41:33.664Z,31.82
2022-08-11T14:44:20.123Z,31.84
2022-08-11T14:47:05.583Z,31.72
2022-08-11T14:50:09.330Z,31.71
2022-08-11T14:52:44.839Z,31.42
2022-08-11T14:55:30.973Z,31.81
2022-08-11T14:57:57.985Z,31.98
2022-08-11T15:00:24.918Z,31.72
2022-08-11T15:03:13.778Z,32.32
2022-08-11T15:06:02.118Z,32.31
2022-08-11T15:08:49.197Z,32.00
2022-08-11T15:11:37.176Z,32.26
2022-08-11T15:14:06.884Z,32.30
2022-08-11T15:16:51.863Z,31.85
2022-08-11T15:19:21.658Z,32.06
2022-08-11T15:22:10.162Z,31.95
2022-08-11T15:24:37.000Z,31.87
2022-08-11T15:27:24.627Z,32.26
2022-08-11T15:30:10.082Z,32.70
2022-08-11T15:33:06.288Z,31.92
2022-08-11T15:35:52.838Z,32.61
2022-08-11T15:38:20.010Z,32.34
2022-08-11T15:41:05.089Z,32.66
2022-08-11T15:44:07.126Z,32.28
2022-08-11T15:46:49.484Z,32.43
2022-08-11T15:49:24.081Z,32.43
2022-08-11T15:52:16.364Z,32.36
2022-08-11T15:54:43.518Z,32.27
2022-08-11T15:57:30.848Z,32.29
2022-08-11T16:00:26.030Z,32.36
2022-08-11T16:02:56.411Z,32.38
2022-08-11T16:05:45.856Z,32.08
2022-08-11T16:08:13.244Z,32.21
2022-08-11T16:10:42.461Z,32.57
2022-08-11T16:13:12.809Z,32.08
2022-08-11T16:16:00.413Z,32.15
2022-08-11T16:18:41.921Z,32.44
2022-08-11T16:21:33.820Z,32.31
2022-08-11T16:24:05.353Z,32.33
2022-08-11T16:27:11.492Z,32.34
2022-08-11T16:29:19.737Z,32.02
2022-08-11T16:32:06.901Z,31.89
2022-08-11T16:34:52.638Z,31.58
2022-08-11T16:37:37.786Z,31.62
2022-08-11T16:40:05.452Z,31.58
2022-08-11T16:43:04.485Z,31.53
2022-08-11T16:45:56.784Z,31.75
2022-08-11T16:48:35.730Z,31.84
2022-08-11T16:51:08.481Z,31.79
2022-08-11T16:54:00.264Z,31.88
2022-08-11T16:56:27.776Z,31.82
2022-08-11T16:59:27.974Z,31.55
2022-08-11T17:01:59.289Z,31.61
2022-08-11T17:04:50.002Z,31.58
2022-08-11T17:07:42.351Z,31.45
2022-08-11T17:10:52.409Z,31.67
2022-08-11T17:13:24.295Z,31.76
2022-08-11T17:16:06.960Z,31.58
2022-08-11T17:18:44.672Z,31.41
2022-08-11T17:21:18.056Z,31.08
2022-08-11T17:23:49.919Z,31.05
2022-08-11T17:26:58.312Z,30.92
2022-08-11T17:29:27.066Z,31.10
2022-08-11T17:32:13.434Z,31.00
2022-08-11T17:35:01.573Z,30.68
2022-08-11T17:37:32.356Z,30.58
2022-08-11T17:40:01.027Z,30.28
2022-08-11T17:42:48.718Z,30.42
2022-08-11T17:45:35.241Z,30.43
2022-08-11T17:48:20.533Z,30.44
2022-08-11T17:50:48.477Z,30.22
2022-08-11T17:53:34.103Z,30.10
2022-08-11T17:56:21.094Z,30.10
2022-08-11T17:59:07.285Z,30.06
2022-08-11T18:01:36.097Z,29.97
2022-08-11T18:04:05.539Z,29.91
2022-08-11T18:06:35.063Z,29.87
2022-08-11T18:09:33.422Z,29.72
2022-08-11T18:12:20.110Z,29.67
2022-08-11T18:15:08.797Z,29.43
2022-08-11T18:17:55.632Z,29.69
2022-08-11T18:20:41.764Z,29.45
2022-08-11T18:23:46.143Z,29.23
2022-08-11T18:26:37.865Z,29.17
2022-08-11T18:29:25.070Z,29.12
2022-08-11T18:32:11.751Z,28.89
2022-08-11T18:35:07.727Z,28.87
2022-08-11T18:37:54.815Z,28.75
2022-08-11T18:40:45.596Z,28.78
2022-08-11T18:43:31.869Z,28.68
2022-08-11T18:46:21.581Z,28.43
2022-08-11T18:49:15.515Z,28.23
2022-08-11T18:52:05.873Z,28.21
2022-08-11T18:54:54.069Z,28.14
2022-08-11T18:57:49.466Z,28.20
2022-08-11T19:00:38.977Z,28.11
2022-08-11T19:03:24.601Z,28.03
2022-08-11T19:06:39.378Z,27.93
2022-08-11T19:09:20.924Z,27.85
2022-08-11T19:12:07.077Z,27.51
2022-08-11T19:14:54.123Z,27.45
2022-08-11T19:17:43.911Z,27.49
2022-08-11T19:20:33.790Z,27.34
2022-08-11T19:23:21.047Z,27.29
2022-08-11T19:26:06.573Z,27.13
2022-08-11T19:28:53.473Z,27.08
2022-08-11T19:31:44.014Z,26.77
2022-08-11T19:34:40.008Z,26.76
2022-08-11T19:37:26.322Z,26.62
2022-08-11T19:40:19.014Z,26.47
2022-08-11T19:43:04.550Z,26.17
2022-08-11T19:46:04.759Z,26.20
2022-08-11T19:48:50.946Z,25.94
2022-08-11T19:51:46.799Z,25.94
2022-08-11T19:54:32.959Z,25.76
2022-08-11T19:57:18.528Z,25.48
2022-08-11T20:00:04.252Z,25.63
2022-08-11T20:02:49.352Z,25.56
2022-08-11T20:05:34.321Z,25.62
2022-08-11T20:08:19.700Z,25.26
2022-08-11T20:11:06.377Z,25.10
2022-08-11T20:13:52.102Z,24.98
2022-08-11T20:16:39.205Z,24.77
2022-08-11T20:19:54.947Z,24.65
2022-08-11T20:22:33.794Z,24.56
2022-08-11T20:25:19.877Z,24.33
2022-08-11T20:28:05.086Z,23.94
2022-08-11T20:30:51.795Z,24.12
2022-08-11T20:33:37.637Z,24.10
2022-08-11T20:36:23.158Z,24.04
2022-08-11T20:39:08.444Z,23.96
2022-08-11T20:41:59.103Z,23.84
2022-08-11T20:44:45.739Z,23.70
2022-08-11T20:47:33.760Z,23.55
2022-08-11T20:50:40.042Z,23.53
2022-08-11T20:53:26.771Z,23.46
2022-08-11T20:56:13.878Z,23.54
2022-08-11T20:59:18.260Z,23.30
2022-08-11T21:02:05.232Z,22.98
2022-08-11T21:04:56.020Z,22.84
2022-08-11T21:07:42.302Z,23.04
2022-08-11T21:10:29.171Z,22.99
2022-08-11T21:13:25.035Z,22.91
2022-08-11T21:16:19.771Z,22.88
2022-08-11T21:19:13.988Z,22.75
2022-08-11T21:22:00.168Z,22.68
2022-08-11T21:24:47.009Z,22.73
2022-08-11T21:27:35.390Z,22.61
2022-08-11T21:30:20.960Z,22.52
2022-08-11T21:33:05.852Z,22.41
2022-08-11T21:35:51.454Z,21.98
2022-08-11T21:38:36.406Z,21.96
2022-08-11T21:41:22.053Z,21.85
2022-08-11T21:44:08.409Z,21.71
2022-08-11T21:46:55.384Z,21.73
2022-08-11T21:49:41.923Z,21.73
2022-08-11T21:52:27.457Z,21.55
2022-08-11T21:55:12.967Z,21.45
2022-08-11T21:57:59.009Z,21.46
2022-08-11T22:00:44.200Z,21.38
2022-08-11T22:03:29.397Z,21.51
2022-08-11T22:06:19.671Z,21.34
2022-08-11T22:09:06.242Z,21.33
2022-08-11T22:11:51.445Z,21.11
2022-08-11T22:14:56.835Z,20.93
2022-08-11T22:17:41.858Z,20.99
2022-08-11T22:20:30.492Z,20.98
2022-08-11T22:23:19.779Z,20.90
2022-08-11T22:26:07.303Z,20.81
2022-08-11T22:28:56.931Z,20.64
2022-08-11T22:31:42.773Z,20.76
2022-08-11T22:34:27.985Z,20.70
2022-08-11T22:37:26.928Z,20.47
2022-08-11T22:40:12.752Z,20.52
2022-08-11T22:42:58.054Z,20.61
2022-08-11T22:45:43.222Z,20.35
2022-08-11T22:48:29.327Z,20.38
2022-08-11T22:51:16.409Z,20.16
2022-08-11T22:54:02.112Z,19.93
2022-08-11T22:56:49.117Z,20.13
2022-08-11T22:59:38.249Z,19.92
2022-08-11T23:02:25.004Z,20.05
2022-08-11T23:05:10.489Z,20.03
2022-08-11T23:07:55.934Z,19.98
2022-08-11T23:10:42.301Z,19.78
2022-08-11T23:13:27.875Z,19.85
2022-08-11T23:16:14.122Z,20.00
2022-08-11T23:18:59.683Z,19.95
2022-08-11T23:21:46.373Z,19.80
2022-08-11T23:24:33.647Z,19.73
2022-08-11T23:27:21.968Z,19.66
2022-08-11T23:30:09.465Z,19.61
2022-08-11T23:32:55.249Z,19.71
2022-08-11T23:35:51.930Z,19.49
2022-08-11T23:38:42.287Z,19.60
2022-08-11T23:41:27.198Z,19.61
2022-08-11T23:44:12.792Z,19.32
2022-08-11T23:46:58.352Z,19.19
2022-08-11T23:49:43.511Z,19.24
2022-08-11T23:52:29.161Z,19.12
2022-08-11T23:55:14.380Z,19.19
2022-08-11T23:57:59.930Z,19.03
